sensor_id;sensor_type;location;lat;lon;timestamp;temperature;humidity
65369;HTU21D;51970;53.484;49.488;2023-01-30T00:00:35;-8.93;75.67
65369;HTU21D;51970;53.484;49.488;2023-01-30T00:03:01;-8.98;75.96
65369;HTU21D;51970;53.484;49.488;2023-01-30T00:05:27;-8.93;75.97
65369;HTU21D;51970;53.484;49.488;2023-01-30T00:07:55;-8.86;75.99
65369;HTU21D;51970;53.484;49.488;2023-01-30T00:10:21;-8.83;75.67
65369;HTU21D;51970;53.484;49.488;2023-01-30T00:12:47;-8.83;75.56
65369;HTU21D;51970;53.484;49.488;2023-01-30T00:15:13;-8.83;75.60
65369;HTU21D;51970;53.484;49.488;2023-01-30T00:17:39;-8.82;75.87
65369;HTU21D;51970;53.484;49.488;2023-01-30T00:20:05;-8.75;75.96
65369;HTU21D;51970;53.484;49.488;2023-01-30T00:22:32;-8.72;76.15
65369;HTU21D;51970;53.484;49.488;2023-01-30T00:24:58;-8.65;76.08
65369;HTU21D;51970;53.484;49.488;2023-01-30T00:27:24;-8.59;75.83
65369;HTU21D;51970;53.484;49.488;2023-01-30T00:29:50;-8.55;75.76
65369;HTU21D;51970;53.484;49.488;2023-01-30T00:32:16;-8.56;75.55
65369;HTU21D;51970;53.484;49.488;2023-01-30T00:34:42;-8.63;75.62
65369;HTU21D;51970;53.484;49.488;2023-01-30T00:37:08;-6.21;75.72
65369;HTU21D;51970;53.484;49.488;2023-01-30T00:39:34;-8.56;76.15
65369;HTU21D;51970;53.484;49.488;2023-01-30T00:42:03;-8.45;76.20
65369;HTU21D;51970;53.484;49.488;2023-01-30T00:44:47;-8.24;76.15
65369;HTU21D;51970;53.484;49.488;2023-01-30T00:47:31;-8.29;75.63
65369;HTU21D;51970;53.484;49.488;2023-01-30T00:49:57;-8.29;75.70
65369;HTU21D;51970;53.484;49.488;2023-01-30T00:52:23;-8.29;75.95
65369;HTU21D;51970;53.484;49.488;2023-01-30T00:54:49;-8.22;76.37
65369;HTU21D;51970;53.484;49.488;2023-01-30T00:57:17;-8.15;76.35
65369;HTU21D;51970;53.484;49.488;2023-01-30T00:59:46;-8.15;76.40
65369;HTU21D;51970;53.484;49.488;2023-01-30T01:02:12;-8.07;76.40
65369;HTU21D;51970;53.484;49.488;2023-01-30T01:04:38;-8.09;76.37
65369;HTU21D;51970;53.484;49.488;2023-01-30T01:07:11;-7.93;76.37
65369;HTU21D;51970;53.484;49.488;2023-01-30T01:09:38;-8.06;76.27
65369;HTU21D;51970;53.484;49.488;2023-01-30T01:12:05;-7.94;76.61
65369;HTU21D;51970;53.484;49.488;2023-01-30T01:14:31;-7.91;76.44
65369;HTU21D;51970;53.484;49.488;2023-01-30T01:16:58;-7.82;76.06
65369;HTU21D;51970;53.484;49.488;2023-01-30T01:19:24;-5.38;76.15
65369;HTU21D;51970;53.484;49.488;2023-01-30T01:21:50;-7.77;76.10
65369;HTU21D;51970;53.484;49.488;2023-01-30T01:24:17;-7.68;76.36
65369;HTU21D;51970;53.484;49.488;2023-01-30T01:26:43;-7.61;76.02
65369;HTU21D;51970;53.484;49.488;2023-01-30T01:29:14;-7.61;76.27
65369;HTU21D;51970;53.484;49.488;2023-01-30T01:31:42;-7.62;76.54
65369;HTU21D;51970;53.484;49.488;2023-01-30T01:34:11;-7.60;76.56
65369;HTU21D;51970;53.484;49.488;2023-01-30T01:36:37;-7.49;76.46
65369;HTU21D;51970;53.484;49.488;2023-01-30T01:39:03;-7.50;76.56
65369;HTU21D;51970;53.484;49.488;2023-01-30T01:41:30;-7.40;76.73
65369;HTU21D;51970;53.484;49.488;2023-01-30T01:46:52;-7.25;76.56
65369;HTU21D;51970;53.484;49.488;2023-01-30T01:49:23;-7.20;76.42
65369;HTU21D;51970;53.484;49.488;2023-01-30T01:51:56;-7.21;76.55
65369;HTU21D;51970;53.484;49.488;2023-01-30T01:57:03;-5.56;76.14
65369;HTU21D;51970;53.484;49.488;2023-01-30T01:59:38;-7.22;76.22
65369;HTU21D;51970;53.484;49.488;2023-01-30T02:02:09;-7.12;76.24
65369;HTU21D;51970;53.484;49.488;2023-01-30T02:04:38;-7.10;75.97
65369;HTU21D;51970;53.484;49.488;2023-01-30T02:07:28;-7.12;75.57
65369;HTU21D;51970;53.484;49.488;2023-01-30T02:09:56;-7.15;74.90
65369;HTU21D;51970;53.484;49.488;2023-01-30T02:12:23;-7.21;74.91
65369;HTU21D;51970;53.484;49.488;2023-01-30T02:14:51;-7.30;74.92
65369;HTU21D;51970;53.484;49.488;2023-01-30T02:17:19;-7.38;75.25
65369;HTU21D;51970;53.484;49.488;2023-01-30T02:19:59;-7.20;75.65
65369;HTU21D;51970;53.484;49.488;2023-01-30T02:28:31;-7.27;76.06
65369;HTU21D;51970;53.484;49.488;2023-01-30T02:31:16;-7.30;76.14
65369;HTU21D;51970;53.484;49.488;2023-01-30T02:33:56;-7.31;76.16
65369;HTU21D;51970;53.484;49.488;2023-01-30T02:36:45;-7.16;76.12
65369;HTU21D;51970;53.484;49.488;2023-01-30T02:44:31;-6.85;76.30
65369;HTU21D;51970;53.484;49.488;2023-01-30T02:47:07;-6.80;76.28
65369;HTU21D;51970;53.484;49.488;2023-01-30T02:49:41;-6.93;76.31
65369;HTU21D;51970;53.484;49.488;2023-01-30T02:52:10;-6.92;76.28
65369;HTU21D;51970;53.484;49.488;2023-01-30T02:54:37;-6.97;76.42
65369;HTU21D;51970;53.484;49.488;2023-01-30T02:57:17;-7.02;76.39
65369;HTU21D;51970;53.484;49.488;2023-01-30T02:59:46;-7.06;76.60
65369;HTU21D;51970;53.484;49.488;2023-01-30T03:16:05;-6.98;78.18
65369;HTU21D;51970;53.484;49.488;2023-01-30T03:18:33;-6.93;78.08
65369;HTU21D;51970;53.484;49.488;2023-01-30T03:21:04;-6.94;77.92
65369;HTU21D;51970;53.484;49.488;2023-01-30T03:23:30;-6.91;78.30
65369;HTU21D;51970;53.484;49.488;2023-01-30T03:25:57;-6.93;78.49
65369;HTU21D;51970;53.484;49.488;2023-01-30T03:28:27;-6.81;78.40
65369;HTU21D;51970;53.484;49.488;2023-01-30T03:30:53;-6.73;78.17
65369;HTU21D;51970;53.484;49.488;2023-01-30T03:33:19;-6.76;77.95
65369;HTU21D;51970;53.484;49.488;2023-01-30T03:35:45;-6.81;77.89
65369;HTU21D;51970;53.484;49.488;2023-01-30T03:38:11;-6.91;78.32
65369;HTU21D;51970;53.484;49.488;2023-01-30T03:40:38;-6.81;78.53
65369;HTU21D;51970;53.484;49.488;2023-01-30T03:43:04;-6.74;78.43
65369;HTU21D;51970;53.484;49.488;2023-01-30T03:45:30;-6.70;78.46
65369;HTU21D;51970;53.484;49.488;2023-01-30T03:47:56;-6.70;78.82
65369;HTU21D;51970;53.484;49.488;2023-01-30T03:50:23;-6.59;79.06
65369;HTU21D;51970;53.484;49.488;2023-01-30T03:52:49;-6.52;79.16
65369;HTU21D;51970;53.484;49.488;2023-01-30T03:55:15;-6.34;79.52
65369;HTU21D;51970;53.484;49.488;2023-01-30T03:57:41;-6.47;79.93
65369;HTU21D;51970;53.484;49.488;2023-01-30T04:00:08;-6.37;80.33
65369;HTU21D;51970;53.484;49.488;2023-01-30T04:02:35;-6.42;80.69
65369;HTU21D;51970;53.484;49.488;2023-01-30T04:05:04;-6.43;80.41
65369;HTU21D;51970;53.484;49.488;2023-01-30T04:07:30;-6.44;80.44
65369;HTU21D;51970;53.484;49.488;2023-01-30T04:09:56;-6.46;81.12
65369;HTU21D;51970;53.484;49.488;2023-01-30T04:12:22;-6.44;81.96
65369;HTU21D;51970;53.484;49.488;2023-01-30T04:14:48;-6.30;82.01
65369;HTU21D;51970;53.484;49.488;2023-01-30T04:17:15;-6.26;81.67
65369;HTU21D;51970;53.484;49.488;2023-01-30T04:19:41;-6.17;81.91
65369;HTU21D;51970;53.484;49.488;2023-01-30T04:22:07;-6.01;81.68
65369;HTU21D;51970;53.484;49.488;2023-01-30T04:24:33;-5.87;81.58
65369;HTU21D;51970;53.484;49.488;2023-01-30T04:26:59;-5.73;81.73
65369;HTU21D;51970;53.484;49.488;2023-01-30T04:29:25;-5.57;82.34
65369;HTU21D;51970;53.484;49.488;2023-01-30T04:31:52;-5.50;82.40
65369;HTU21D;51970;53.484;49.488;2023-01-30T04:34:18;-5.45;81.32
65369;HTU21D;51970;53.484;49.488;2023-01-30T04:36:47;-5.43;80.70
65369;HTU21D;51970;53.484;49.488;2023-01-30T04:39:13;-5.47;80.41
65369;HTU21D;51970;53.484;49.488;2023-01-30T04:41:39;-5.49;80.00
65369;HTU21D;51970;53.484;49.488;2023-01-30T04:44:05;-5.55;80.04
65369;HTU21D;51970;53.484;49.488;2023-01-30T04:46:32;-5.57;80.17
65369;HTU21D;51970;53.484;49.488;2023-01-30T04:48:58;-5.56;79.97
65369;HTU21D;51970;53.484;49.488;2023-01-30T04:51:27;-5.50;79.92
65369;HTU21D;51970;53.484;49.488;2023-01-30T04:53:53;-5.45;79.38
65369;HTU21D;51970;53.484;49.488;2023-01-30T04:56:20;-5.46;79.14
65369;HTU21D;51970;53.484;49.488;2023-01-30T04:58:46;-5.40;79.13
65369;HTU21D;51970;53.484;49.488;2023-01-30T05:01:25;-5.31;79.17
65369;HTU21D;51970;53.484;49.488;2023-01-30T05:03:54;-5.20;78.59
65369;HTU21D;51970;53.484;49.488;2023-01-30T05:06:22;-5.19;78.51
65369;HTU21D;51970;53.484;49.488;2023-01-30T05:08:49;-5.18;78.63
65369;HTU21D;51970;53.484;49.488;2023-01-30T05:11:17;-5.19;78.47
65369;HTU21D;51970;53.484;49.488;2023-01-30T05:13:46;-5.11;78.09
65369;HTU21D;51970;53.484;49.488;2023-01-30T05:16:16;-4.95;78.01
65369;HTU21D;51970;53.484;49.488;2023-01-30T05:18:43;-4.96;78.50
65369;HTU21D;51970;53.484;49.488;2023-01-30T05:21:12;-4.91;78.39
65369;HTU21D;51970;53.484;49.488;2023-01-30T05:23:39;-4.84;78.30
65369;HTU21D;51970;53.484;49.488;2023-01-30T05:26:07;-4.87;78.14
65369;HTU21D;51970;53.484;49.488;2023-01-30T05:28:34;-4.87;78.33
65369;HTU21D;51970;53.484;49.488;2023-01-30T05:31:07;-4.80;78.72
65369;HTU21D;51970;53.484;49.488;2023-01-30T05:33:37;-4.82;78.86
65369;HTU21D;51970;53.484;49.488;2023-01-30T05:36:05;-4.78;79.15
65369;HTU21D;51970;53.484;49.488;2023-01-30T05:38:35;-4.74;79.01
65369;HTU21D;51970;53.484;49.488;2023-01-30T05:41:03;-4.68;78.93
65369;HTU21D;51970;53.484;49.488;2023-01-30T05:43:33;-4.69;79.14
65369;HTU21D;51970;53.484;49.488;2023-01-30T05:46:02;-4.65;79.19
65369;HTU21D;51970;53.484;49.488;2023-01-30T05:48:29;-4.60;79.35
65369;HTU21D;51970;53.484;49.488;2023-01-30T05:50:57;-4.54;79.22
65369;HTU21D;51970;53.484;49.488;2023-01-30T05:53:31;-4.45;78.89
65369;HTU21D;51970;53.484;49.488;2023-01-30T05:56:03;-4.46;79.04
65369;HTU21D;51970;53.484;49.488;2023-01-30T05:58:31;-4.46;79.50
65369;HTU21D;51970;53.484;49.488;2023-01-30T06:01:02;-4.25;80.57
65369;HTU21D;51970;53.484;49.488;2023-01-30T06:03:29;-4.12;80.62
65369;HTU21D;51970;53.484;49.488;2023-01-30T06:05:56;-4.02;80.91
65369;HTU21D;51970;53.484;49.488;2023-01-30T06:08:23;-3.93;80.76
65369;HTU21D;51970;53.484;49.488;2023-01-30T06:10:50;-3.91;80.65
65369;HTU21D;51970;53.484;49.488;2023-01-30T06:13:16;-3.89;80.81
65369;HTU21D;51970;53.484;49.488;2023-01-30T06:16:09;-3.80;81.03
65369;HTU21D;51970;53.484;49.488;2023-01-30T06:18:37;-3.78;80.95
65369;HTU21D;51970;53.484;49.488;2023-01-30T06:21:05;-3.69;80.81
65369;HTU21D;51970;53.484;49.488;2023-01-30T06:23:31;-3.69;80.58
65369;HTU21D;51970;53.484;49.488;2023-01-30T06:26:01;-3.61;80.18
65369;HTU21D;51970;53.484;49.488;2023-01-30T06:28:27;-3.56;80.07
65369;HTU21D;51970;53.484;49.488;2023-01-30T06:30:53;-3.49;79.61
65369;HTU21D;51970;53.484;49.488;2023-01-30T06:33:21;-3.57;79.95
65369;HTU21D;51970;53.484;49.488;2023-01-30T06:35:49;-3.47;80.07
65369;HTU21D;51970;53.484;49.488;2023-01-30T06:38:16;-3.49;79.41
65369;HTU21D;51970;53.484;49.488;2023-01-30T06:40:47;-3.46;79.56
65369;HTU21D;51970;53.484;49.488;2023-01-30T06:43:13;-3.35;78.88
65369;HTU21D;51970;53.484;49.488;2023-01-30T06:45:40;-3.47;79.00
65369;HTU21D;51970;53.484;49.488;2023-01-30T06:48:07;-3.49;79.03
65369;HTU21D;51970;53.484;49.488;2023-01-30T06:50:33;-3.49;79.12
65369;HTU21D;51970;53.484;49.488;2023-01-30T06:53:05;-3.40;78.80
65369;HTU21D;51970;53.484;49.488;2023-01-30T06:55:33;-3.32;78.85
65369;HTU21D;51970;53.484;49.488;2023-01-30T06:58:20;-3.28;78.43
65369;HTU21D;51970;53.484;49.488;2023-01-30T07:00:47;-3.32;78.54
65369;HTU21D;51970;53.484;49.488;2023-01-30T07:03:15;-3.35;78.50
65369;HTU21D;51970;53.484;49.488;2023-01-30T07:05:43;-3.31;78.79
65369;HTU21D;51970;53.484;49.488;2023-01-30T07:08:11;-3.36;78.59
65369;HTU21D;51970;53.484;49.488;2023-01-30T07:10:39;-3.10;78.56
65369;HTU21D;51970;53.484;49.488;2023-01-30T07:13:06;-3.28;78.92
65369;HTU21D;51970;53.484;49.488;2023-01-30T07:15:33;-3.17;78.56
65369;HTU21D;51970;53.484;49.488;2023-01-30T07:18:00;-3.18;78.56
65369;HTU21D;51970;53.484;49.488;2023-01-30T07:20:27;-3.21;78.65
65369;HTU21D;51970;53.484;49.488;2023-01-30T07:22:57;-3.23;78.75
65369;HTU21D;51970;53.484;49.488;2023-01-30T07:25:25;-3.22;78.98
65369;HTU21D;51970;53.484;49.488;2023-01-30T07:27:53;-3.11;78.96
65369;HTU21D;51970;53.484;49.488;2023-01-30T07:30:20;-3.06;78.43
65369;HTU21D;51970;53.484;49.488;2023-01-30T07:32:53;-3.06;78.38
65369;HTU21D;51970;53.484;49.488;2023-01-30T07:35:22;-3.23;78.79
65369;HTU21D;51970;53.484;49.488;2023-01-30T07:37:49;-3.13;78.73
65369;HTU21D;51970;53.484;49.488;2023-01-30T07:40:18;-3.15;79.17
65369;HTU21D;51970;53.484;49.488;2023-01-30T07:43:05;-3.17;78.59
65369;HTU21D;51970;53.484;49.488;2023-01-30T07:48:10;-2.94;78.23
65369;HTU21D;51970;53.484;49.488;2023-01-30T07:50:37;-3.01;77.86
65369;HTU21D;51970;53.484;49.488;2023-01-30T07:53:07;-2.88;77.97
65369;HTU21D;51970;53.484;49.488;2023-01-30T07:55:34;-3.18;78.40
65369;HTU21D;51970;53.484;49.488;2023-01-30T07:58:00;-3.11;78.94
65369;HTU21D;51970;53.484;49.488;2023-01-30T08:00:27;-3.03;78.14
65369;HTU21D;51970;53.484;49.488;2023-01-30T08:02:53;-3.03;78.05
65369;HTU21D;51970;53.484;49.488;2023-01-30T08:05:19;-2.96;78.05
65369;HTU21D;51970;53.484;49.488;2023-01-30T08:07:46;-2.88;78.16
65369;HTU21D;51970;53.484;49.488;2023-01-30T08:10:12;-2.82;78.42
65369;HTU21D;51970;53.484;49.488;2023-01-30T08:12:39;-2.83;78.66
65369;HTU21D;51970;53.484;49.488;2023-01-30T08:15:07;-2.84;78.29
65369;HTU21D;51970;53.484;49.488;2023-01-30T08:17:34;-2.73;77.94
65369;HTU21D;51970;53.484;49.488;2023-01-30T08:20:04;-2.72;77.48
65369;HTU21D;51970;53.484;49.488;2023-01-30T08:22:30;-2.65;77.33
65369;HTU21D;51970;53.484;49.488;2023-01-30T08:24:56;-2.66;77.89
65369;HTU21D;51970;53.484;49.488;2023-01-30T08:27:22;-2.72;77.98
65369;HTU21D;51970;53.484;49.488;2023-01-30T08:29:48;-2.74;78.16
65369;HTU21D;51970;53.484;49.488;2023-01-30T08:32:15;-2.72;78.15
65369;HTU21D;51970;53.484;49.488;2023-01-30T08:34:41;-2.61;78.13
65369;HTU21D;51970;53.484;49.488;2023-01-30T08:37:10;-2.39;77.50
65369;HTU21D;51970;53.484;49.488;2023-01-30T08:39:36;-2.47;77.04
65369;HTU21D;51970;53.484;49.488;2023-01-30T08:42:03;-2.48;77.33
65369;HTU21D;51970;53.484;49.488;2023-01-30T08:44:29;-2.46;77.06
65369;HTU21D;51970;53.484;49.488;2023-01-30T08:46:56;-2.33;77.26
65369;HTU21D;51970;53.484;49.488;2023-01-30T08:49:22;-2.23;76.81
65369;HTU21D;51970;53.484;49.488;2023-01-30T08:51:48;-2.17;76.15
65369;HTU21D;51970;53.484;49.488;2023-01-30T08:54:15;-2.18;76.31
65369;HTU21D;51970;53.484;49.488;2023-01-30T08:56:42;-2.16;75.95
65369;HTU21D;51970;53.484;49.488;2023-01-30T08:59:08;-2.17;76.02
65369;HTU21D;51970;53.484;49.488;2023-01-30T09:01:38;-2.23;76.16
65369;HTU21D;51970;53.484;49.488;2023-01-30T09:04:05;-2.27;76.61
65369;HTU21D;51970;53.484;49.488;2023-01-30T09:06:32;-2.16;76.72
65369;HTU21D;51970;53.484;49.488;2023-01-30T09:08:59;-2.07;76.22
65369;HTU21D;51970;53.484;49.488;2023-01-30T09:11:27;-1.85;75.89
65369;HTU21D;51970;53.484;49.488;2023-01-30T09:13:53;-2.00;76.67
65369;HTU21D;51970;53.484;49.488;2023-01-30T09:16:20;-1.93;76.66
65369;HTU21D;51970;53.484;49.488;2023-01-30T09:18:46;-2.10;76.91
65369;HTU21D;51970;53.484;49.488;2023-01-30T09:21:13;-2.14;77.10
65369;HTU21D;51970;53.484;49.488;2023-01-30T09:23:39;-2.27;77.76
65369;HTU21D;51970;53.484;49.488;2023-01-30T09:26:06;-2.36;78.27
65369;HTU21D;51970;53.484;49.488;2023-01-30T09:28:33;-2.32;78.47
65369;HTU21D;51970;53.484;49.488;2023-01-30T09:31:01;-2.19;78.75
65369;HTU21D;51970;53.484;49.488;2023-01-30T09:33:27;-2.09;77.95
65369;HTU21D;51970;53.484;49.488;2023-01-30T09:35:54;-1.97;77.71
65369;HTU21D;51970;53.484;49.488;2023-01-30T09:38:21;-1.99;77.39
65369;HTU21D;51970;53.484;49.488;2023-01-30T09:40:57;-2.00;77.60
65369;HTU21D;51970;53.484;49.488;2023-01-30T09:43:36;-1.92;77.82
65369;HTU21D;51970;53.484;49.488;2023-01-30T09:46:32;-1.83;78.30
65369;HTU21D;51970;53.484;49.488;2023-01-30T09:54:50;-2.34;79.62
65369;HTU21D;51970;53.484;49.488;2023-01-30T09:57:22;-2.41;79.73
65369;HTU21D;51970;53.484;49.488;2023-01-30T10:00:02;-2.21;80.11
65369;HTU21D;51970;53.484;49.488;2023-01-30T10:05:19;-2.46;80.24
65369;HTU21D;51970;53.484;49.488;2023-01-30T10:10:36;-2.33;81.80
65369;HTU21D;51970;53.484;49.488;2023-01-30T10:18:59;-2.45;81.42
65369;HTU21D;51970;53.484;49.488;2023-01-30T10:22:01;-2.42;81.13
65369;HTU21D;51970;53.484;49.488;2023-01-30T10:27:58;-2.27;81.49
65369;HTU21D;51970;53.484;49.488;2023-01-30T10:30:26;-2.13;80.51
65369;HTU21D;51970;53.484;49.488;2023-01-30T10:32:59;-2.21;79.81
65369;HTU21D;51970;53.484;49.488;2023-01-30T10:35:33;-1.92;79.75
65369;HTU21D;51970;53.484;49.488;2023-01-30T10:38:27;-2.22;79.35
65369;HTU21D;51970;53.484;49.488;2023-01-30T10:41:07;-2.23;79.01
65369;HTU21D;51970;53.484;49.488;2023-01-30T10:43:41;-2.22;79.09
65369;HTU21D;51970;53.484;49.488;2023-01-30T10:48:47;-2.06;78.21
65369;HTU21D;51970;53.484;49.488;2023-01-30T10:51:33;-2.15;77.69
65369;HTU21D;51970;53.484;49.488;2023-01-30T10:54:40;-2.04;77.20
65369;HTU21D;51970;53.484;49.488;2023-01-30T11:00:31;-1.90;76.21
65369;HTU21D;51970;53.484;49.488;2023-01-30T11:03:17;-1.61;75.23
65369;HTU21D;51970;53.484;49.488;2023-01-30T11:06:02;-1.76;75.61
65369;HTU21D;51970;53.484;49.488;2023-01-30T11:08:33;-1.75;75.01
65369;HTU21D;51970;53.484;49.488;2023-01-30T11:11:00;-1.88;74.48
65369;HTU21D;51970;53.484;49.488;2023-01-30T11:13:44;-2.00;74.98
65369;HTU21D;51970;53.484;49.488;2023-01-30T11:16:14;-1.90;74.96
65369;HTU21D;51970;53.484;49.488;2023-01-30T11:18:47;-1.83;74.42
65369;HTU21D;51970;53.484;49.488;2023-01-30T11:21:25;-1.87;74.69
65369;HTU21D;51970;53.484;49.488;2023-01-30T11:23:53;-1.89;74.40
65369;HTU21D;51970;53.484;49.488;2023-01-30T11:26:29;-1.91;74.64
65369;HTU21D;51970;53.484;49.488;2023-01-30T11:28:57;-1.75;74.29
65369;HTU21D;51970;53.484;49.488;2023-01-30T11:31:26;-1.76;73.96
65369;HTU21D;51970;53.484;49.488;2023-01-30T11:34:05;-1.82;73.72
65369;HTU21D;51970;53.484;49.488;2023-01-30T11:36:37;-1.74;73.99
65369;HTU21D;51970;53.484;49.488;2023-01-30T11:39:20;-1.75;74.26
65369;HTU21D;51970;53.484;49.488;2023-01-30T11:44:40;-1.87;74.72
65369;HTU21D;51970;53.484;49.488;2023-01-30T11:47:22;-1.88;74.76
65369;HTU21D;51970;53.484;49.488;2023-01-30T11:49:54;-1.89;74.41
65369;HTU21D;51970;53.484;49.488;2023-01-30T11:52:30;-1.88;74.16
65369;HTU21D;51970;53.484;49.488;2023-01-30T11:55:02;-1.86;74.26
65369;HTU21D;51970;53.484;49.488;2023-01-30T11:57:47;-1.80;73.95
65369;HTU21D;51970;53.484;49.488;2023-01-30T12:00:22;-1.76;73.72
65369;HTU21D;51970;53.484;49.488;2023-01-30T12:02:52;-1.72;73.03
65369;HTU21D;51970;53.484;49.488;2023-01-30T12:10:42;-1.83;72.90
65369;HTU21D;51970;53.484;49.488;2023-01-30T12:13:23;-1.74;72.46
65369;HTU21D;51970;53.484;49.488;2023-01-30T12:19:03;-1.85;72.58
65369;HTU21D;51970;53.484;49.488;2023-01-30T12:21:49;-1.73;72.68
65369;HTU21D;51970;53.484;49.488;2023-01-30T12:27:10;-1.77;71.82
65369;HTU21D;51970;53.484;49.488;2023-01-30T12:29:58;-1.74;71.29
65369;HTU21D;51970;53.484;49.488;2023-01-30T12:32:27;-1.82;71.63
65369;HTU21D;51970;53.484;49.488;2023-01-30T12:34:55;-1.84;72.00
65369;HTU21D;51970;53.484;49.488;2023-01-30T12:37:39;-1.77;71.40
65369;HTU21D;51970;53.484;49.488;2023-01-30T12:40:19;-1.74;71.25
65369;HTU21D;51970;53.484;49.488;2023-01-30T12:51:57;-1.92;71.23
65369;HTU21D;51970;53.484;49.488;2023-01-30T13:10:50;-1.88;70.03
65369;HTU21D;51970;53.484;49.488;2023-01-30T13:13:40;-2.01;69.97
65369;HTU21D;51970;53.484;49.488;2023-01-30T13:16:17;-2.04;69.65
65369;HTU21D;51970;53.484;49.488;2023-01-30T13:19:04;-2.04;70.19
65369;HTU21D;51970;53.484;49.488;2023-01-30T13:26:49;-2.12;69.81
65369;HTU21D;51970;53.484;49.488;2023-01-30T13:29:23;-2.12;69.96
65369;HTU21D;51970;53.484;49.488;2023-01-30T13:31:53;-2.16;70.23
65369;HTU21D;51970;53.484;49.488;2023-01-30T13:34:42;-2.12;69.82
65369;HTU21D;51970;53.484;49.488;2023-01-30T13:37:17;-2.17;69.90
65369;HTU21D;51970;53.484;49.488;2023-01-30T13:39:48;-2.16;70.40
65369;HTU21D;51970;53.484;49.488;2023-01-30T13:45:17;-2.20;69.90
65369;HTU21D;51970;53.484;49.488;2023-01-30T14:00:56;-2.14;69.52
65369;HTU21D;51970;53.484;49.488;2023-01-30T14:03:24;-2.19;69.65
65369;HTU21D;51970;53.484;49.488;2023-01-30T14:08:22;-2.20;69.42
65369;HTU21D;51970;53.484;49.488;2023-01-30T14:10:50;-2.16;69.39
65369;HTU21D;51970;53.484;49.488;2023-01-30T14:13:17;-2.17;69.39
65369;HTU21D;51970;53.484;49.488;2023-01-30T14:15:54;-2.12;69.25
65369;HTU21D;51970;53.484;49.488;2023-01-30T14:18:24;-2.12;69.31
65369;HTU21D;51970;53.484;49.488;2023-01-30T14:23:36;-2.12;69.50
65369;HTU21D;51970;53.484;49.488;2023-01-30T14:26:03;-2.14;69.77
65369;HTU21D;51970;53.484;49.488;2023-01-30T14:30:57;-2.14;68.99
65369;HTU21D;51970;53.484;49.488;2023-01-30T14:38:38;-2.05;68.62
65369;HTU21D;51970;53.484;49.488;2023-01-30T14:56:38;-1.92;67.75
65369;HTU21D;51970;53.484;49.488;2023-01-30T15:05:07;-2.03;68.44
65369;HTU21D;51970;53.484;49.488;2023-01-30T15:13:39;-1.97;67.68
65369;HTU21D;51970;53.484;49.488;2023-01-30T15:19:39;-2.12;68.42
65369;HTU21D;51970;53.484;49.488;2023-01-30T15:25:42;-2.14;68.44
65369;HTU21D;51970;53.484;49.488;2023-01-30T15:31:15;-2.01;67.70
65369;HTU21D;51970;53.484;49.488;2023-01-30T15:33:47;-2.01;68.48
65369;HTU21D;51970;53.484;49.488;2023-01-30T15:36:25;-2.15;68.45
65369;HTU21D;51970;53.484;49.488;2023-01-30T15:41:37;-2.16;68.95
65369;HTU21D;51970;53.484;49.488;2023-01-30T15:52:21;-2.26;69.04
65369;HTU21D;51970;53.484;49.488;2023-01-30T15:54:52;-2.23;69.50
65369;HTU21D;51970;53.484;49.488;2023-01-30T15:57:30;-2.26;69.49
65369;HTU21D;51970;53.484;49.488;2023-01-30T15:59:58;-2.23;69.29
65369;HTU21D;51970;53.484;49.488;2023-01-30T16:02:30;-2.21;69.36
65369;HTU21D;51970;53.484;49.488;2023-01-30T16:05:20;-2.27;69.98
65369;HTU21D;51970;53.484;49.488;2023-01-30T16:07:49;-2.31;69.69
65369;HTU21D;51970;53.484;49.488;2023-01-30T16:10:21;-2.22;69.74
65369;HTU21D;51970;53.484;49.488;2023-01-30T16:12:49;-2.31;69.82
65369;HTU21D;51970;53.484;49.488;2023-01-30T16:18:01;-2.38;70.03
65369;HTU21D;51970;53.484;49.488;2023-01-30T16:20:28;-2.47;70.45
65369;HTU21D;51970;53.484;49.488;2023-01-30T16:22:57;-2.49;70.69
65369;HTU21D;51970;53.484;49.488;2023-01-30T16:25:26;-2.42;70.41
65369;HTU21D;51970;53.484;49.488;2023-01-30T16:27:59;-2.45;70.69
65369;HTU21D;51970;53.484;49.488;2023-01-30T16:30:27;-2.44;70.72
65369;HTU21D;51970;53.484;49.488;2023-01-30T16:32:55;-2.46;70.74
65369;HTU21D;51970;53.484;49.488;2023-01-30T16:37:52;-2.51;70.92
65369;HTU21D;51970;53.484;49.488;2023-01-30T16:40:30;-2.52;71.27
65369;HTU21D;51970;53.484;49.488;2023-01-30T16:43:03;-2.53;71.18
65369;HTU21D;51970;53.484;49.488;2023-01-30T16:53:26;-2.62;71.67
65369;HTU21D;51970;53.484;49.488;2023-01-30T16:56:15;-2.61;71.68
65369;HTU21D;51970;53.484;49.488;2023-01-30T16:58:48;-2.65;71.77
65369;HTU21D;51970;53.484;49.488;2023-01-30T17:01:17;-2.66;71.67
65369;HTU21D;51970;53.484;49.488;2023-01-30T17:03:52;-2.68;71.90
65369;HTU21D;51970;53.484;49.488;2023-01-30T17:08:57;-2.64;71.80
65369;HTU21D;51970;53.484;49.488;2023-01-30T17:11:37;-2.65;72.08
65369;HTU21D;51970;53.484;49.488;2023-01-30T17:14:16;-2.63;71.73
65369;HTU21D;51970;53.484;49.488;2023-01-30T17:16:43;-2.69;72.17
65369;HTU21D;51970;53.484;49.488;2023-01-30T17:19:11;-2.66;71.93
65369;HTU21D;51970;53.484;49.488;2023-01-30T17:22:05;-2.74;71.95
65369;HTU21D;51970;53.484;49.488;2023-01-30T17:24:34;-2.74;72.05
65369;HTU21D;51970;53.484;49.488;2023-01-30T17:27:03;-2.74;71.64
65369;HTU21D;51970;53.484;49.488;2023-01-30T17:29:31;-2.72;71.51
65369;HTU21D;51970;53.484;49.488;2023-01-30T17:31:58;-2.72;71.34
65369;HTU21D;51970;53.484;49.488;2023-01-30T17:34:24;-2.67;70.97
65369;HTU21D;51970;53.484;49.488;2023-01-30T17:36:52;-2.75;71.20
65369;HTU21D;51970;53.484;49.488;2023-01-30T17:39:21;-2.67;70.93
65369;HTU21D;51970;53.484;49.488;2023-01-30T17:41:50;-2.71;71.29
65369;HTU21D;51970;53.484;49.488;2023-01-30T17:44:16;-2.78;70.72
65369;HTU21D;51970;53.484;49.488;2023-01-30T17:46:47;-2.81;71.16
65369;HTU21D;51970;53.484;49.488;2023-01-30T17:49:21;-2.76;71.20
65369;HTU21D;51970;53.484;49.488;2023-01-30T17:51:49;-2.81;71.03
65369;HTU21D;51970;53.484;49.488;2023-01-30T17:54:15;-2.82;70.97
65369;HTU21D;51970;53.484;49.488;2023-01-30T17:56:44;-2.93;71.15
65369;HTU21D;51970;53.484;49.488;2023-01-30T17:59:13;-2.98;71.49
65369;HTU21D;51970;53.484;49.488;2023-01-30T18:01:41;-3.09;71.65
65369;HTU21D;51970;53.484;49.488;2023-01-30T18:04:10;-3.07;71.76
65369;HTU21D;51970;53.484;49.488;2023-01-30T18:06:38;-3.05;71.38
65369;HTU21D;51970;53.484;49.488;2023-01-30T18:09:05;-3.03;71.45
65369;HTU21D;51970;53.484;49.488;2023-01-30T18:11:33;-3.10;71.37
65369;HTU21D;51970;53.484;49.488;2023-01-30T18:14:00;-3.09;71.57
65369;HTU21D;51970;53.484;49.488;2023-01-30T18:16:29;-3.05;71.48
65369;HTU21D;51970;53.484;49.488;2023-01-30T18:19:00;-3.08;71.29
65369;HTU21D;51970;53.484;49.488;2023-01-30T18:21:34;-3.12;71.42
65369;HTU21D;51970;53.484;49.488;2023-01-30T18:24:01;-3.08;71.31
65369;HTU21D;51970;53.484;49.488;2023-01-30T18:26:28;-3.16;71.28
65369;HTU21D;51970;53.484;49.488;2023-01-30T18:28:54;-3.16;71.44
65369;HTU21D;51970;53.484;49.488;2023-01-30T18:31:23;-3.11;71.07
65369;HTU21D;51970;53.484;49.488;2023-01-30T18:33:51;-3.11;71.47
65369;HTU21D;51970;53.484;49.488;2023-01-30T18:36:19;-3.10;71.13
65369;HTU21D;51970;53.484;49.488;2023-01-30T18:38:46;-3.10;70.90